<?xml version="1.0" encoding="utf-8"?>
<gpx xmlns:xsi="http://www.w3.org/2001/XMLSchema-instance" xmlns:xsd="http://www.w3.org/2001/XMLSchema" version="1.1" creator="Shapelink.com" xmlns="http://www.topografix.com/GPX/1/1" xmlns:gpxtpx="http://www.garmin.com/xmlschemas/TrackPointExtension/v1">
  <metadata>
    <name>Övrigt 2.94 km, 2020-06-10</name>
    <desc></desc>
    <author><name>Marian Moron</name></author> 
    <time>2020-06-10T19:27:41Z</time>
  </metadata>
  <trk>
    <name>Övrigt 2.94 km, 2020-06-10</name>
    <trkseg>
      <trkpt lat="51.228767742103" lon="4.448823931183">
        <ele>0</ele>
        <time>2020-06-10T19:27:41Z</time>
      </trkpt>
      <trkpt lat="51.229076196023" lon="4.448581610454">
        <ele>0</ele>
        <time>2020-06-10T19:28:45Z</time>
      </trkpt>
      <trkpt lat="51.229089523244" lon="4.448607761982">
        <ele>0</ele>
        <time>2020-06-10T19:28:47Z</time>
      </trkpt>
      <trkpt lat="51.229345757927" lon="4.449176138621">
        <ele>0</ele>
        <time>2020-06-10T19:29:31Z</time>
      </trkpt>
      <trkpt lat="51.229455644636" lon="4.449878960936">
        <ele>0.8</ele>
        <time>2020-06-10T19:30:16Z</time>
      </trkpt>
      <trkpt lat="51.229582043688" lon="4.450561331415">
        <ele>2</ele>
        <time>2020-06-10T19:31:05Z</time>
      </trkpt>
      <trkpt lat="51.229719171572" lon="4.451242779885">
        <ele>3.4</ele>
        <time>2020-06-10T19:31:54Z</time>
      </trkpt>
      <trkpt lat="51.229858394931" lon="4.451926994382">
        <ele>9.4</ele>
        <time>2020-06-10T19:32:44Z</time>
      </trkpt>
      <trkpt lat="51.229960235016" lon="4.45262118334">
        <ele>9</ele>
        <time>2020-06-10T19:33:32Z</time>
      </trkpt>
      <trkpt lat="51.230177410045" lon="4.453265667631">
        <ele>24.6</ele>
        <time>2020-06-10T19:34:18Z</time>
      </trkpt>
      <trkpt lat="51.230231138024" lon="4.453981062796">
        <ele>10.2</ele>
        <time>2020-06-10T19:35:04Z</time>
      </trkpt>
      <trkpt lat="51.230364661691" lon="4.454657565945">
        <ele>17</ele>
        <time>2020-06-10T19:35:48Z</time>
      </trkpt>
      <trkpt lat="51.230275394456" lon="4.455061573525">
        <ele>9.2</ele>
        <time>2020-06-10T19:36:17Z</time>
      </trkpt>
      <trkpt lat="51.23032283601" lon="4.455125611241">
        <ele>9.6</ele>
        <time>2020-06-10T19:36:25Z</time>
      </trkpt>
      <trkpt lat="51.230673283249" lon="4.455574042891">
        <ele>16.6</ele>
        <time>2020-06-10T19:37:08Z</time>
      </trkpt>
      <trkpt lat="51.231003949204" lon="4.456072263027">
        <ele>29</ele>
        <time>2020-06-10T19:37:53Z</time>
      </trkpt>
      <trkpt lat="51.230991627811" lon="4.456106796455">
        <ele>28.8</ele>
        <time>2020-06-10T19:37:54Z</time>
      </trkpt>
      <trkpt lat="51.230785768347" lon="4.456263286528">
        <ele>21.2</ele>
        <time>2020-06-10T19:38:23Z</time>
      </trkpt>
      <trkpt lat="51.230579573607" lon="4.456379208205">
        <ele>13.6</ele>
        <time>2020-06-10T19:38:46Z</time>
      </trkpt>
      <trkpt lat="51.23049717953" lon="4.456420028058">
        <ele>11.4</ele>
        <time>2020-06-10T19:38:53Z</time>
      </trkpt>
      <trkpt lat="51.230305653115" lon="4.456763685958">
        <ele>7</ele>
        <time>2020-06-10T19:39:20Z</time>
      </trkpt>
      <trkpt lat="51.229838781285" lon="4.456768296003">
        <ele>2</ele>
        <time>2020-06-10T19:39:54Z</time>
      </trkpt>
      <trkpt lat="51.229791004455" lon="4.456892180485">
        <ele>2</ele>
        <time>2020-06-10T19:40:04Z</time>
      </trkpt>
      <trkpt lat="51.229802739115" lon="4.456968623413">
        <ele>1.4</ele>
        <time>2020-06-10T19:40:08Z</time>
      </trkpt>
      <trkpt lat="51.229854203981" lon="4.457558290078">
        <ele>12</ele>
        <time>2020-06-10T19:40:36Z</time>
      </trkpt>
      <trkpt lat="51.229830399385" lon="4.457626434925">
        <ele>11</ele>
        <time>2020-06-10T19:40:41Z</time>
      </trkpt>
      <trkpt lat="51.229839032742" lon="4.457789881975">
        <ele>8.2</ele>
        <time>2020-06-10T19:40:50Z</time>
      </trkpt>
      <trkpt lat="51.22982662753" lon="4.457818883349">
        <ele>10.4</ele>
        <time>2020-06-10T19:40:52Z</time>
      </trkpt>
      <trkpt lat="51.229701150487" lon="4.457883004884">
        <ele>13.2</ele>
        <time>2020-06-10T19:41:04Z</time>
      </trkpt>
      <trkpt lat="51.229645494671" lon="4.457826510878">
        <ele>9.8</ele>
        <time>2020-06-10T19:41:34Z</time>
      </trkpt>
      <trkpt lat="51.229696624261" lon="4.457960202183">
        <ele>16.2</ele>
        <time>2020-06-10T19:47:34Z</time>
      </trkpt>
      <trkpt lat="51.229251461552" lon="4.458177125755">
        <ele>2.8</ele>
        <time>2020-06-10T19:48:01Z</time>
      </trkpt>
      <trkpt lat="51.22918792675" lon="4.458185507655">
        <ele>3.8</ele>
        <time>2020-06-10T19:48:10Z</time>
      </trkpt>
      <trkpt lat="51.228749385742" lon="4.458372172568">
        <ele>0</ele>
        <time>2020-06-10T19:48:42Z</time>
      </trkpt>
      <trkpt lat="51.22863220678" lon="4.458375525328">
        <ele>2</ele>
        <time>2020-06-10T19:48:54Z</time>
      </trkpt>
      <trkpt lat="51.228627596735" lon="4.45841475262">
        <ele>2</ele>
        <time>2020-06-10T19:48:58Z</time>
      </trkpt>
      <trkpt lat="51.22872021673" lon="4.459115730917">
        <ele>5.8</ele>
        <time>2020-06-10T19:49:28Z</time>
      </trkpt>
      <trkpt lat="51.228751481217" lon="4.459629625206">
        <ele>4.6</ele>
        <time>2020-06-10T19:49:58Z</time>
      </trkpt>
      <trkpt lat="51.228777381288" lon="4.459796592654">
        <ele>5.8</ele>
        <time>2020-06-10T19:50:12Z</time>
      </trkpt>
      <trkpt lat="51.228751481217" lon="4.459814613739">
        <ele>6.6</ele>
        <time>2020-06-10T19:50:15Z</time>
      </trkpt>
      <trkpt lat="51.228706889509" lon="4.459700787537">
        <ele>4</ele>
        <time>2020-06-10T19:50:20Z</time>
      </trkpt>
      <trkpt lat="51.228692975555" lon="4.459637252735">
        <ele>3.4</ele>
        <time>2020-06-10T19:50:23Z</time>
      </trkpt>
      <trkpt lat="51.228668919502" lon="4.459503980525">
        <ele>5.8</ele>
        <time>2020-06-10T19:50:34Z</time>
      </trkpt>
      <trkpt lat="51.228547214314" lon="4.459381688604">
        <ele>3.8</ele>
        <time>2020-06-10T19:50:49Z</time>
      </trkpt>
      <trkpt lat="51.228393657906" lon="4.459607999904">
        <ele>2.2</ele>
        <time>2020-06-10T19:51:11Z</time>
      </trkpt>
      <trkpt lat="51.228353592424" lon="4.460054168441">
        <ele>6.4</ele>
        <time>2020-06-10T19:51:30Z</time>
      </trkpt>
      <trkpt lat="51.228331212751" lon="4.460240498078">
        <ele>8.4</ele>
        <time>2020-06-10T19:51:50Z</time>
      </trkpt>
      <trkpt lat="51.22824580119" lon="4.460502432453">
        <ele>6.2</ele>
        <time>2020-06-10T19:52:16Z</time>
      </trkpt>
      <trkpt lat="51.228379576314" lon="4.460670489548">
        <ele>2.8</ele>
        <time>2020-06-10T19:52:43Z</time>
      </trkpt>
      <trkpt lat="51.228748966647" lon="4.461200644723">
        <ele>15</ele>
        <time>2020-06-10T19:53:24Z</time>
      </trkpt>
      <trkpt lat="51.229193374985" lon="4.46122939464">
        <ele>24.2</ele>
        <time>2020-06-10T19:54:10Z</time>
      </trkpt>
      <trkpt lat="51.229320109313" lon="4.461153622264">
        <ele>25</ele>
        <time>2020-06-10T19:54:27Z</time>
      </trkpt>
      <trkpt lat="51.229640884626" lon="4.461112215678">
        <ele>2.6</ele>
        <time>2020-06-10T19:54:49Z</time>
      </trkpt>
      <trkpt lat="51.229712466052" lon="4.461131745505">
        <ele>0.4</ele>
        <time>2020-06-10T19:54:56Z</time>
      </trkpt>
      <trkpt lat="51.229925114855" lon="4.461772709398">
        <ele>0</ele>
        <time>2020-06-10T19:55:34Z</time>
      </trkpt>
      <trkpt lat="51.230089316276" lon="4.462406381038">
        <ele>1</ele>
        <time>2020-06-10T19:56:36Z</time>
      </trkpt>
      <trkpt lat="51.230134327079" lon="4.46247997412">
        <ele>0.6</ele>
        <time>2020-06-10T19:56:48Z</time>
      </trkpt>
      <trkpt lat="51.230223678133" lon="4.462688096697">
        <ele>4</ele>
        <time>2020-06-10T19:57:04Z</time>
      </trkpt>
      <trkpt lat="51.230389723572" lon="4.463351524082">
        <ele>6.8</ele>
        <time>2020-06-10T19:57:42Z</time>
      </trkpt>
      <trkpt lat="51.230415120729" lon="4.463414053056">
        <ele>6.4</ele>
        <time>2020-06-10T19:57:51Z</time>
      </trkpt>
      <trkpt lat="51.230375222885" lon="4.463873800271">
        <ele>7.4</ele>
        <time>2020-06-10T19:58:13Z</time>
      </trkpt>
      <trkpt lat="51.230304982563" lon="4.463968851017">
        <ele>7.4</ele>
        <time>2020-06-10T19:58:23Z</time>
      </trkpt>
      <trkpt lat="51.23008562824" lon="4.464147217849">
        <ele>10.6</ele>
        <time>2020-06-10T19:58:49Z</time>
      </trkpt>
      <trkpt lat="51.229642728644" lon="4.464249728486">
        <ele>12</ele>
        <time>2020-06-10T19:59:26Z</time>
      </trkpt>
      <trkpt lat="51.22919966141" lon="4.464388868026">
        <ele>11.2</ele>
        <time>2020-06-10T20:00:07Z</time>
      </trkpt>
      <trkpt lat="51.229056498558" lon="4.464423652911">
        <ele>13.8</ele>
        <time>2020-06-10T20:00:22Z</time>
      </trkpt>
      <trkpt lat="51.22890042758" lon="4.464420132513">
        <ele>8</ele>
        <time>2020-06-10T20:00:47Z</time>
      </trkpt>
      <trkpt lat="51.228789702681" lon="4.464462544927">
        <ele>5</ele>
        <time>2020-06-10T20:01:01Z</time>
      </trkpt>
      <trkpt lat="51.228764054067" lon="4.464615849878">
        <ele>5.6</ele>
        <time>2020-06-10T20:01:20Z</time>
      </trkpt>
      <trkpt lat="51.228768999388" lon="4.465343734074">
        <ele>7.4</ele>
        <time>2020-06-10T20:01:57Z</time>
      </trkpt>
      <trkpt lat="51.228501197683" lon="4.465912529808">
        <ele>0.6</ele>
        <time>2020-06-10T20:02:30Z</time>
      </trkpt>
      <trkpt lat="51.228324171955" lon="4.466151330139">
        <ele>2.4</ele>
        <time>2020-06-10T20:02:49Z</time>
      </trkpt>
      <trkpt lat="51.228039941726" lon="4.466371941747">
        <ele>5.2</ele>
        <time>2020-06-10T20:03:14Z</time>
      </trkpt>
      <trkpt lat="51.22793902365" lon="4.466335731939">
        <ele>7</ele>
        <time>2020-06-10T20:03:21Z</time>
      </trkpt>
      <trkpt lat="51.227920415832" lon="4.466284686168">
        <ele>8</ele>
        <time>2020-06-10T20:03:24Z</time>
      </trkpt>
      <trkpt lat="51.227837183565" lon="4.466047813674">
        <ele>1.2</ele>
        <time>2020-06-10T20:04:34Z</time>
      </trkpt>
      <trkpt lat="51.227965510454" lon="4.465403664659">
        <ele>14.8</ele>
        <time>2020-06-10T20:05:49Z</time>
      </trkpt>
      <trkpt lat="51.227993086905" lon="4.465309284465">
        <ele>17</ele>
        <time>2020-06-10T20:05:56Z</time>
      </trkpt>
      <trkpt lat="51.22786861569" lon="4.46461232948">
        <ele>7</ele>
        <time>2020-06-10T20:06:46Z</time>
      </trkpt>
      <trkpt lat="51.227828717846" lon="4.464508561558">
        <ele>3.8</ele>
        <time>2020-06-10T20:06:59Z</time>
      </trkpt>
      <trkpt lat="51.227776833885" lon="4.463804733415">
        <ele>0</ele>
        <time>2020-06-10T20:07:37Z</time>
      </trkpt>
      <trkpt lat="51.227783539405" lon="4.463608848412">
        <ele>1.2</ele>
        <time>2020-06-10T20:07:50Z</time>
      </trkpt>
      <trkpt lat="51.22772947615" lon="4.463183550806">
        <ele>4</ele>
        <time>2020-06-10T20:08:22Z</time>
      </trkpt>
      <trkpt lat="51.227681866958" lon="4.462938799326">
        <ele>0.8</ele>
        <time>2020-06-10T20:08:35Z</time>
      </trkpt>
      <trkpt lat="51.227618667432" lon="4.462894375256">
        <ele>0</ele>
        <time>2020-06-10T20:08:45Z</time>
      </trkpt>
      <trkpt lat="51.227571644973" lon="4.462653730907">
        <ele>0</ele>
        <time>2020-06-10T20:09:02Z</time>
      </trkpt>
      <trkpt lat="51.227416663642" lon="4.462042858035">
        <ele>0</ele>
        <time>2020-06-10T20:09:45Z</time>
      </trkpt>
      <trkpt lat="51.227363103301" lon="4.46154539227">
        <ele>4.2</ele>
        <time>2020-06-10T20:10:24Z</time>
      </trkpt>
      <trkpt lat="51.227311386978" lon="4.461425866376">
        <ele>8.4</ele>
        <time>2020-06-10T20:10:36Z</time>
      </trkpt>
      <trkpt lat="51.227346842415" lon="4.461204751854">
        <ele>7.4</ele>
        <time>2020-06-10T20:11:02Z</time>
      </trkpt>
      <trkpt lat="51.227352039193" lon="4.460770234158">
        <ele>8</ele>
        <time>2020-06-10T20:11:29Z</time>
      </trkpt>
      <trkpt lat="51.227203428106" lon="4.4600844271">
        <ele>0.6</ele>
        <time>2020-06-10T20:12:12Z</time>
      </trkpt>
      <trkpt lat="51.227057163951" lon="4.459399122956">
        <ele>0</ele>
        <time>2020-06-10T20:12:56Z</time>
      </trkpt>
      <trkpt lat="51.227085494773" lon="4.459120340962">
        <ele>5.2</ele>
        <time>2020-06-10T20:13:32Z</time>
      </trkpt>
      <trkpt lat="51.227109886102" lon="4.459092764511">
        <ele>6.6</ele>
        <time>2020-06-10T20:13:36Z</time>
      </trkpt>
      <trkpt lat="51.227320020335" lon="4.458918420991">
        <ele>15</ele>
        <time>2020-06-10T20:14:03Z</time>
      </trkpt>
      <trkpt lat="51.227575081552" lon="4.458738796874">
        <ele>10.2</ele>
        <time>2020-06-10T20:14:39Z</time>
      </trkpt>
      <trkpt lat="51.22801613713" lon="4.458548779201">
        <ele>10.2</ele>
        <time>2020-06-10T20:15:25Z</time>
      </trkpt>
      <trkpt lat="51.228446547695" lon="4.45832003715">
        <ele>9.4</ele>
        <time>2020-06-10T20:16:03Z</time>
      </trkpt>
      <trkpt lat="51.22854252045" lon="4.458241582566">
        <ele>5.8</ele>
        <time>2020-06-10T20:16:12Z</time>
      </trkpt>
      <trkpt lat="51.2289071331" lon="4.458061287897">
        <ele>5</ele>
        <time>2020-06-10T20:16:46Z</time>
      </trkpt>
      <trkpt lat="51.229320444589" lon="4.457953245206">
        <ele>6.2</ele>
        <time>2020-06-10T20:17:56Z</time>
      </trkpt>
      <trkpt lat="51.229653541295" lon="4.457850566931">
        <ele>5.4</ele>
        <time>2020-06-10T20:18:45Z</time>
      </trkpt>
    </trkseg>
  </trk>
</gpx>